Time;durP1;ratioP1;P1;durP2;ratioP2;P2;SDS_P1;SDS_P2;PMS_P1;PMS_P2;Temp;Humidity;BMP_temperature;BMP_pressure;BME280_temperature;BME280_humidity;BME280_pressure;Samples;Min_cycle;Max_cycle;Signal;HPM_P1;HPM_P2
2021/04/20 00:01:14;;;;;;;184.67;173.83;;;4.60;99.90;;;;;;4932488;29;20846;-78
2021/04/20 00:03:40;;;;;;;193.50;181.13;;;4.60;99.90;;;;;;4932649;29;20457;-78
2021/04/20 00:06:07;;;;;;;182.60;172.20;;;4.60;99.90;;;;;;4932461;29;20457;-78
2021/04/20 00:08:34;;;;;;;186.27;175.57;;;4.50;99.90;;;;;;4931144;29;20587;-79
2021/04/20 00:11:01;;;;;;;179.40;169.27;;;4.50;99.90;;;;;;4934658;29;20452;-78
2021/04/20 00:13:28;;;;;;;180.93;170.83;;;4.40;99.90;;;;;;4935936;29;20465;-78
2021/04/20 00:15:54;;;;;;;188.93;178.03;;;4.30;99.90;;;;;;4935631;29;20948;-79
2021/04/20 00:18:20;;;;;;;190.33;177.97;;;4.30;99.90;;;;;;4935603;29;20561;-78
2021/04/20 00:20:47;;;;;;;190.67;179.37;;;4.20;99.90;;;;;;4935362;29;20452;-78
2021/04/20 00:23:13;;;;;;;180.40;169.77;;;4.20;99.90;;;;;;4934281;29;20453;-78
2021/04/20 00:25:40;;;;;;;181.23;170.63;;;4.20;99.90;;;;;;4935762;29;20464;-78
2021/04/20 00:28:08;;;;;;;182.03;172.23;;;4.10;99.90;;;;;;4935495;28;20527;-78
2021/04/20 00:30:34;;;;;;;186.63;176.53;;;3.90;99.90;;;;;;4935511;29;20544;-78
2021/04/20 00:33:00;;;;;;;191.73;180.03;;;3.80;99.90;;;;;;4935442;29;20457;-79
2021/04/20 00:35:27;;;;;;;193.33;181.53;;;3.90;99.90;;;;;;4935188;29;20575;-79
2021/04/20 00:37:54;;;;;;;187.17;176.93;;;4.00;99.90;;;;;;4935423;29;20945;-79
2021/04/20 00:40:20;;;;;;;189.37;179.37;;;4.00;99.90;;;;;;4934110;29;20478;-79
2021/04/20 00:42:53;;;;;;;186.80;176.70;;;3.90;99.90;;;;;;4935247;29;20468;-78
2021/04/20 00:45:22;;;;;;;185.10;174.33;;;3.80;99.90;;;;;;4935316;29;20467;-78
2021/04/20 00:47:48;;;;;;;192.60;181.20;;;3.70;99.90;;;;;;4934807;29;20488;-79
2021/04/20 00:50:16;;;;;;;186.50;175.83;;;3.60;99.90;;;;;;4935150;29;21043;-78
2021/04/20 00:52:43;;;;;;;179.23;168.77;;;3.70;99.90;;;;;;4934985;29;20549;-79
2021/04/20 00:55:11;;;;;;;186.43;176.47;;;3.70;99.90;;;;;;4933907;29;20553;-78
2021/04/20 00:57:38;;;;;;;184.17;173.70;;;3.60;99.90;;;;;;4934740;29;20532;-79
2021/04/20 01:00:07;;;;;;;182.70;172.67;;;3.70;99.90;;;;;;4934880;29;20945;-79
2021/04/20 01:02:35;;;;;;;183.70;173.80;;;3.60;99.90;;;;;;4934765;29;20540;-78
2021/04/20 01:05:01;;;;;;;188.73;176.93;;;3.60;99.90;;;;;;4934868;29;20532;-78
2021/04/20 01:07:28;;;;;;;180.60;171.00;;;3.60;99.90;;;;;;4934642;29;21031;-78
2021/04/20 01:09:55;;;;;;;186.23;175.33;;;3.50;99.90;;;;;;4933540;29;20457;-78
2021/04/20 01:12:21;;;;;;;190.97;179.87;;;3.50;99.90;;;;;;4934735;29;20811;-78
2021/04/20 01:14:48;;;;;;;199.73;188.17;;;3.60;99.90;;;;;;4934705;29;20460;-78
2021/04/20 01:17:14;;;;;;;202.60;190.90;;;3.70;99.90;;;;;;4934553;29;20493;-78
2021/04/20 01:19:45;;;;;;;204.73;192.33;;;3.80;99.90;;;;;;4935727;29;20472;-78
2021/04/20 01:22:14;;;;;;;198.50;187.83;;;3.80;99.90;;;;;;4933514;29;20484;-78
2021/04/20 01:24:41;;;;;;;201.47;190.57;;;3.70;99.90;;;;;;4933621;29;20464;-78
2021/04/20 01:27:08;;;;;;;209.10;198.27;;;3.70;99.90;;;;;;4934499;29;20456;-78
2021/04/20 01:29:34;;;;;;;195.77;185.63;;;3.70;99.90;;;;;;4934505;29;20536;-78
2021/04/20 01:32:01;;;;;;;202.90;191.33;;;3.50;99.90;;;;;;4934532;29;20492;-78
2021/04/20 01:34:28;;;;;;;207.27;194.63;;;3.50;99.90;;;;;;4934412;29;20457;-78
2021/04/20 01:36:55;;;;;;;201.83;190.37;;;3.50;99.90;;;;;;4934465;29;20971;-78
2021/04/20 01:39:21;;;;;;;205.00;193.47;;;3.60;99.90;;;;;;4933219;29;20467;-78
2021/04/20 01:41:50;;;;;;;204.73;191.70;;;3.60;99.90;;;;;;4934690;29;20953;-79
2021/04/20 01:44:17;;;;;;;206.70;196.13;;;3.60;99.90;;;;;;4934258;29;20457;-79
2021/04/20 01:46:44;;;;;;;208.83;197.73;;;3.70;99.90;;;;;;4934274;29;20564;-78
2021/04/20 01:49:10;;;;;;;202.80;192.20;;;3.80;99.90;;;;;;4934093;29;20485;-78
2021/04/20 01:51:36;;;;;;;219.27;208.07;;;3.70;99.90;;;;;;4934540;29;20484;-78
2021/04/20 01:54:03;;;;;;;211.93;197.53;;;3.70;99.90;;;;;;4933298;29;20547;-78
2021/04/20 01:56:31;;;;;;;193.83;184.93;;;3.70;99.90;;;;;;4933958;29;20485;-77
2021/04/20 01:58:59;;;;;;;190.80;180.50;;;3.70;99.90;;;;;;4934021;29;20504;-78
2021/04/20 02:01:30;;;;;;;203.23;191.50;;;3.80;99.90;;;;;;4935191;29;20974;-78
2021/04/20 02:03:56;;;;;;;201.57;189.57;;;3.90;99.90;;;;;;4933997;29;20526;-78
2021/04/20 02:06:25;;;;;;;207.87;196.63;;;3.90;99.90;;;;;;4934073;29;20485;-78
2021/04/20 02:08:52;;;;;;;209.70;198.13;;;3.80;99.90;;;;;;4932585;29;20488;-79
2021/04/20 02:11:21;;;;;;;223.20;211.77;;;3.80;99.90;;;;;;4933829;29;20476;-78
2021/04/20 02:13:48;;;;;;;218.27;206.23;;;3.70;99.90;;;;;;4933841;29;20461;-78
2021/04/20 02:16:18;;;;;;;217.50;207.00;;;3.60;99.90;;;;;;4933802;29;20508;-78
2021/04/20 02:18:47;;;;;;;219.87;206.90;;;3.60;99.90;;;;;;4933762;29;20489;-78
2021/04/20 02:21:14;;;;;;;233.87;220.07;;;3.60;99.90;;;;;;4933638;29;21031;-78
2021/04/20 02:23:42;;;;;;;224.43;213.03;;;3.60;99.90;;;;;;4932339;29;20511;-78
2021/04/20 02:26:11;;;;;;;220.00;207.10;;;3.50;99.90;;;;;;4933565;29;20504;-78
2021/04/20 02:28:38;;;;;;;223.37;211.70;;;3.50;99.90;;;;;;4933540;29;20500;-78
2021/04/20 02:31:06;;;;;;;222.73;210.23;;;3.60;99.90;;;;;;4933672;29;20891;-78
2021/04/20 02:33:34;;;;;;;216.73;205.13;;;3.50;99.90;;;;;;4933163;29;20539;-79
2021/04/20 02:36:01;;;;;;;214.77;204.30;;;3.40;99.90;;;;;;4933467;29;20540;-79
2021/04/20 02:38:28;;;;;;;236.23;224.17;;;3.50;99.90;;;;;;4932136;29;20514;-78
2021/04/20 02:40:56;;;;;;;228.10;215.17;;;3.60;99.90;;;;;;4933439;29;20552;-78
2021/04/20 02:43:22;;;;;;;222.60;209.63;;;3.50;99.90;;;;;;4933364;29;20516;-79
2021/04/20 02:45:51;;;;;;;217.03;205.23;;;3.40;99.90;;;;;;5467718;23;20910;-79
2021/04/20 02:48:18;;;;;;;216.53;205.23;;;3.30;99.90;;;;;;4933890;29;20508;-78
2021/04/20 02:50:46;;;;;;;216.63;206.03;;;3.20;99.90;;;;;;4933697;29;20445;-78
2021/04/20 02:53:15;;;;;;;217.10;205.53;;;3.20;99.90;;;;;;4933751;29;20449;-78
2021/04/20 02:55:42;;;;;;;212.17;200.57;;;3.10;99.90;;;;;;4933942;29;20999;-79
2021/04/20 03:00:54;;;;;;;207.23;194.33;;;3.10;99.90;;;;;;5324306;23;20485;-78
2021/04/20 03:03:21;;;;;;;216.80;199.57;;;3.20;99.90;;;;;;4935385;28;20873;-78
2021/04/20 03:05:48;;;;;;;214.23;198.63;;;3.10;99.90;;;;;;4933866;29;20856;-79
2021/04/20 03:08:14;;;;;;;224.50;204.23;;;3.10;99.90;;;;;;4934072;29;20477;-78
2021/04/20 03:10:45;;;;;;;213.93;195.57;;;3.00;99.90;;;;;;4934283;29;20574;-78
2021/04/20 03:13:11;;;;;;;215.70;193.97;;;3.10;99.90;;;;;;4933692;29;20857;-79
2021/04/20 03:15:39;;;;;;;223.47;188.83;;;3.10;99.90;;;;;;4933654;29;20445;-78
2021/04/20 03:18:06;;;;;;;200.03;188.80;;;3.10;99.90;;;;;;4933629;29;20446;-78
2021/04/20 03:20:34;;;;;;;201.60;190.00;;;3.00;99.90;;;;;;4933315;29;20924;-79
2021/04/20 03:23:02;;;;;;;205.20;184.30;;;3.20;99.90;;;;;;4933208;29;20445;-78
2021/04/20 03:25:32;;;;;;;197.67;185.93;;;3.20;99.90;;;;;;4933562;29;20456;-78
2021/04/20 03:27:59;;;;;;;194.43;184.43;;;3.30;99.90;;;;;;4933869;29;20510;-78
2021/04/20 03:30:28;;;;;;;228.43;208.47;;;3.30;99.90;;;;;;4933232;29;20933;-79
2021/04/20 03:33:01;;;;;;;226.30;204.67;;;3.30;99.90;;;;;;4933442;29;20441;-79
2021/04/20 03:35:34;;;;;;;223.10;210.10;;;3.40;99.90;;;;;;4934245;29;20507;-78
2021/04/20 03:38:08;;;;;;;218.77;204.00;;;3.40;99.90;;;;;;4934227;29;20800;-78
2021/04/20 03:40:36;;;;;;;221.47;205.80;;;3.30;99.90;;;;;;4933138;29;20590;-78
2021/04/20 03:43:09;;;;;;;217.97;200.13;;;3.30;99.90;;;;;;4933364;29;20451;-79
2021/04/20 03:45:42;;;;;;;203.40;189.57;;;3.30;99.90;;;;;;4935052;29;20822;-78
2021/04/20 03:48:13;;;;;;;208.37;195.97;;;3.30;99.90;;;;;;4937346;29;20941;-78
2021/04/20 03:50:41;;;;;;;229.20;208.37;;;3.10;99.90;;;;;;4936229;29;20936;-78
2021/04/20 03:55:53;;;;;;;204.17;191.13;;;3.10;99.90;;;;;;5016271;28;20480;-78
2021/04/20 03:58:22;;;;;;;208.20;193.10;;;3.00;99.90;;;;;;5017294;28;20487;-79
2021/04/20 04:00:52;;;;;;;225.33;206.80;;;3.00;99.90;;;;;;5017317;28;20525;-78
2021/04/20 04:03:22;;;;;;;204.47;192.97;;;3.10;99.90;;;;;;5017850;28;20499;-78
2021/04/20 04:05:51;;;;;;;218.07;205.63;;;3.10;99.90;;;;;;5016913;28;20445;-78
2021/04/20 04:08:18;;;;;;;199.80;186.90;;;3.00;99.90;;;;;;5016920;28;20514;-78
2021/04/20 04:13:25;;;;;;;211.27;193.27;;;2.90;99.90;;;;;;5241910;23;20508;-78
2021/04/20 04:15:58;;;;;;;208.43;189.57;;;2.90;99.90;;;;;;5017515;28;20453;-79
2021/04/20 04:18:27;;;;;;;202.47;188.37;;;2.90;99.90;;;;;;5017022;28;20449;-79
2021/04/20 04:20:53;;;;;;;193.20;182.17;;;2.90;99.90;;;;;;5017164;28;20480;-80
2021/04/20 04:23:23;;;;;;;209.90;198.27;;;3.00;99.90;;;;;;5017056;28;20442;-79
2021/04/20 04:25:55;;;;;;;203.90;193.00;;;3.00;99.90;;;;;;5017710;28;20932;-79
2021/04/20 04:28:24;;;;;;;194.70;184.30;;;2.90;99.90;;;;;;5017108;28;20521;-80
2021/04/20 04:30:51;;;;;;;201.60;191.63;;;2.80;99.90;;;;;;5017716;28;20579;-79
2021/04/20 04:33:19;;;;;;;207.07;195.67;;;2.80;99.90;;;;;;5016732;28;20445;-80
2021/04/20 04:35:50;;;;;;;205.30;193.63;;;2.80;99.90;;;;;;5016629;28;20441;-79
2021/04/20 04:38:17;;;;;;;199.97;189.37;;;2.80;99.90;;;;;;5016728;28;20496;-79
2021/04/20 04:40:44;;;;;;;209.23;196.27;;;2.80;99.90;;;;;;5021039;23;20501;-79
2021/04/20 04:43:12;;;;;;;206.30;193.53;;;2.90;99.90;;;;;;4936391;29;20453;-79
2021/04/20 04:45:39;;;;;;;207.87;196.53;;;2.90;99.90;;;;;;4936049;29;20492;-80
2021/04/20 04:48:09;;;;;;;206.40;192.13;;;2.90;99.90;;;;;;4936093;29;20485;-79
2021/04/20 04:50:37;;;;;;;208.00;196.73;;;2.80;99.90;;;;;;4935943;29;20545;-80
2021/04/20 04:53:04;;;;;;;198.57;186.73;;;2.70;99.90;;;;;;4935760;29;20459;-79
2021/04/20 04:55:31;;;;;;;206.00;191.43;;;2.70;99.90;;;;;;4936108;29;20473;-79
2021/04/20 04:57:59;;;;;;;184.93;174.53;;;2.70;99.90;;;;;;4936630;29;20493;-79
2021/04/20 05:00:29;;;;;;;210.10;195.13;;;2.70;99.90;;;;;;4936114;29;20461;-79
2021/04/20 05:02:56;;;;;;;188.07;178.47;;;2.80;99.90;;;;;;4935618;29;20483;-80
2021/04/20 05:05:26;;;;;;;205.50;180.83;;;2.60;99.90;;;;;;4936213;29;20492;-79
2021/04/20 05:07:57;;;;;;;185.97;173.97;;;2.70;99.90;;;;;;4935526;29;20469;-79
2021/04/20 05:10:24;;;;;;;181.47;172.43;;;2.70;99.90;;;;;;4935761;29;20544;-79
2021/04/20 05:12:51;;;;;;;190.53;178.67;;;2.80;99.90;;;;;;4935936;29;20481;-79
2021/04/20 05:15:18;;;;;;;190.30;179.93;;;2.80;99.90;;;;;;4935378;29;20598;-79
2021/04/20 05:17:45;;;;;;;190.03;179.53;;;2.90;99.90;;;;;;4935399;29;20511;-79
2021/04/20 05:20:18;;;;;;;193.20;181.57;;;3.00;99.90;;;;;;4938338;29;20455;-80
2021/04/20 05:22:45;;;;;;;188.77;179.47;;;3.00;99.90;;;;;;4935319;29;20877;-79
2021/04/20 05:25:14;;;;;;;193.63;183.23;;;3.20;99.90;;;;;;4934976;29;20446;-80
2021/04/20 05:27:42;;;;;;;204.73;192.20;;;3.20;99.90;;;;;;4935905;29;20540;-79
2021/04/20 05:30:10;;;;;;;205.47;194.27;;;3.30;99.90;;;;;;4936184;29;20449;-79
2021/04/20 05:32:38;;;;;;;204.77;193.47;;;3.50;99.90;;;;;;4935951;29;20467;-80
2021/04/20 05:35:06;;;;;;;196.73;186.53;;;3.70;99.90;;;;;;4934958;29;20445;-80
2021/04/20 05:37:37;;;;;;;213.57;202.40;;;3.80;99.90;;;;;;4936073;29;20491;-80
2021/04/20 05:40:08;;;;;;;222.20;210.47;;;4.00;99.90;;;;;;4935146;29;20480;-80
2021/04/20 05:42:34;;;;;;;239.60;227.20;;;4.10;99.90;;;;;;4935577;29;20501;-81
2021/04/20 05:45:01;;;;;;;230.97;219.67;;;4.30;99.90;;;;;;4934574;29;20481;-80
2021/04/20 05:47:27;;;;;;;233.10;221.97;;;4.40;99.90;;;;;;4934526;29;20448;-81
2021/04/20 05:49:58;;;;;;;248.93;236.73;;;4.60;99.90;;;;;;4934944;29;20455;-79
2021/04/20 05:52:25;;;;;;;232.17;220.27;;;4.70;99.90;;;;;;4934620;29;20445;-79
2021/04/20 05:54:56;;;;;;;236.17;224.20;;;4.80;99.90;;;;;;4934806;29;20439;-82
2021/04/20 05:57:23;;;;;;;246.07;231.57;;;4.90;99.90;;;;;;4935615;29;20463;-81
2021/04/20 05:59:53;;;;;;;245.30;232.50;;;5.00;99.90;;;;;;4935290;29;20592;-79
2021/04/20 06:02:20;;;;;;;247.07;233.20;;;5.10;99.90;;;;;;4934745;29;20537;-78
2021/04/20 06:04:47;;;;;;;243.33;227.17;;;5.20;99.90;;;;;;4935196;29;20445;-81
2021/04/20 06:07:16;;;;;;;248.50;233.37;;;5.30;99.90;;;;;;4933784;29;21002;-80
2021/04/20 06:09:44;;;;;;;239.13;224.73;;;5.50;99.90;;;;;;4934689;29;20473;-80
2021/04/20 06:12:12;;;;;;;244.30;229.47;;;5.60;99.90;;;;;;4934645;29;20449;-80
2021/04/20 06:14:39;;;;;;;231.37;218.17;;;5.80;99.90;;;;;;4934709;29;20545;-81
2021/04/20 06:17:06;;;;;;;238.67;225.03;;;6.00;99.90;;;;;;4934344;29;20555;-79
2021/04/20 06:19:33;;;;;;;239.80;226.23;;;6.10;99.90;;;;;;4934382;29;20803;-80
2021/04/20 06:22:00;;;;;;;237.10;222.87;;;6.30;99.90;;;;;;4934652;29;20441;-80
2021/04/20 06:24:28;;;;;;;235.00;219.43;;;6.40;99.90;;;;;;4934434;29;20453;-80
2021/04/20 06:26:55;;;;;;;232.13;217.93;;;6.60;99.90;;;;;;4934240;29;20441;-80
2021/04/20 06:29:27;;;;;;;238.93;223.47;;;6.80;99.90;;;;;;4935130;29;20477;-80
2021/04/20 06:31:54;;;;;;;235.80;221.80;;;6.90;99.90;;;;;;4934715;29;20472;-79
2021/04/20 06:34:22;;;;;;;236.20;219.83;;;7.00;99.90;;;;;;4935184;29;20599;-80
2021/04/20 06:36:49;;;;;;;236.63;220.03;;;7.10;99.90;;;;;;4935151;29;20473;-79
2021/04/20 06:39:15;;;;;;;211.63;198.83;;;7.20;99.90;;;;;;4934213;29;20442;-81
2021/04/20 06:41:43;;;;;;;229.13;214.97;;;7.30;99.90;;;;;;4933897;29;20622;-80
2021/04/20 06:44:15;;;;;;;223.13;209.17;;;7.40;99.90;;;;;;4934214;29;20836;-80
2021/04/20 06:46:48;;;;;;;200.20;186.80;;;7.60;99.90;;;;;;4934267;29;20804;-80
2021/04/20 06:49:18;;;;;;;210.87;196.40;;;7.70;99.90;;;;;;4934006;29;20508;-80
2021/04/20 06:51:50;;;;;;;217.40;202.37;;;7.70;99.90;;;;;;4934471;29;20479;-79
2021/04/20 06:54:23;;;;;;;240.23;223.37;;;7.80;99.90;;;;;;4933843;29;20548;-81
2021/04/20 06:56:57;;;;;;;208.27;194.97;;;7.90;99.90;;;;;;4933970;29;20545;-79
2021/04/20 06:59:32;;;;;;;216.83;201.57;;;8.00;99.90;;;;;;4933972;29;20958;-78
2021/04/20 07:02:07;;;;;;;220.90;204.80;;;8.20;99.90;;;;;;4934283;29;20448;-78
2021/04/20 07:04:42;;;;;;;226.00;210.07;;;8.30;99.90;;;;;;4934562;29;20443;-80
2021/04/20 07:07:20;;;;;;;239.80;221.17;;;8.30;99.90;;;;;;4933467;29;20540;-79
2021/04/20 07:09:51;;;;;;;254.77;236.90;;;8.40;99.90;;;;;;4933421;29;20515;-79
2021/04/20 07:12:18;;;;;;;282.80;264.83;;;8.50;99.90;;;;;;4933608;29;20878;-79
2021/04/20 07:14:48;;;;;;;285.17;266.70;;;8.60;99.90;;;;;;4933997;29;20476;-79
2021/04/20 07:17:29;;;;;;;268.80;252.57;;;8.80;99.90;;;;;;4934036;29;20807;-78
2021/04/20 07:20:20;;;;;;;284.63;267.13;;;8.90;99.90;;;;;;4932461;29;20455;-80
2021/04/20 07:23:04;;;;;;;309.77;289.63;;;9.00;99.90;;;;;;4933285;29;20441;-79
2021/04/20 07:25:50;;;;;;;294.63;276.67;;;9.10;99.90;;;;;;4934238;29;20523;-79
2021/04/20 07:28:25;;;;;;;303.40;282.43;;;9.20;99.90;;;;;;4933574;29;20812;-80
2021/04/20 07:31:03;;;;;;;298.67;279.77;;;9.40;99.90;;;;;;4934128;29;20457;-79
2021/04/20 07:33:45;;;;;;;294.13;275.90;;;9.40;99.90;;;;;;4933252;29;20447;-79
2021/04/20 07:36:18;;;;;;;288.33;269.27;;;9.50;99.90;;;;;;4933891;29;20446;-77
2021/04/20 07:38:57;;;;;;;288.73;269.70;;;9.60;99.90;;;;;;4933595;29;20445;-79
2021/04/20 07:41:31;;;;;;;294.60;275.10;;;9.70;99.90;;;;;;4933010;29;20513;-80
2021/04/20 07:44:03;;;;;;;283.07;264.87;;;9.80;99.90;;;;;;4933302;29;20456;-80
2021/04/20 07:46:46;;;;;;;265.63;245.17;;;9.90;99.90;;;;;;4932903;29;20440;-78
2021/04/20 07:49:18;;;;;;;250.90;233.03;;;10.00;99.90;;;;;;4933857;29;20491;-80
2021/04/20 07:51:54;;;;;;;208.83;193.50;;;10.10;99.90;;;;;;4933479;29;20455;-78
2021/04/20 07:54:32;;;;;;;217.07;202.10;;;10.30;99.90;;;;;;4933629;29;20929;-79
2021/04/20 07:57:04;;;;;;;172.80;157.90;;;10.50;99.90;;;;;;4933014;29;20453;-81
2021/04/20 08:02:25;;;;;;;85.30;57.07;;;11.20;99.90;;;;;;5062668;23;20496;-80
2021/04/20 08:04:59;;;;;;;73.23;37.43;;;11.50;99.90;;;;;;4932930;29;20451;-81
2021/04/20 08:07:55;;;;;;;70.57;25.67;;;11.80;99.90;;;;;;4933486;29;20535;-79
2021/04/20 08:10:34;;;;;;;63.93;23.33;;;12.10;99.90;;;;;;4932644;29;20452;-80
2021/04/20 08:13:10;;;;;;;50.93;21.63;;;12.30;99.90;;;;;;4933325;29;20466;-81
2021/04/20 08:15:46;;;;;;;61.27;24.10;;;12.70;99.90;;;;;;4932946;29;20527;-82
2021/04/20 08:18:17;;;;;;;47.80;22.00;;;13.00;99.90;;;;;;4933080;29;20441;-81
2021/04/20 08:21:06;;;;;;;52.03;21.90;;;13.30;99.90;;;;;;4934760;29;20492;-84
2021/04/20 08:23:38;;;;;;;50.77;20.37;;;13.50;87.90;;;;;;4930773;28;20576;-84
2021/04/20 08:26:14;;;;;;;55.97;20.80;;;13.80;82.00;;;;;;4932001;29;20515;-85
2021/04/20 08:28:51;;;;;;;57.63;23.17;;;13.70;69.10;;;;;;4931369;29;20491;-83
2021/04/20 08:31:46;;;;;;;58.90;22.97;;;14.00;70.00;;;;;;4916977;29;20201;-84
2021/04/20 08:37:19;;;;;;;53.20;18.70;;;14.60;51.60;;;;;;4915584;29;20837;-84
2021/04/20 08:39:59;;;;;;;50.13;20.77;;;14.60;48.20;;;;;;4918294;29;20488;-82
2021/04/20 08:42:35;;;;;;;52.00;19.97;;;14.80;43.40;;;;;;4916427;29;20484;-85
2021/04/20 08:45:09;;;;;;;49.43;19.67;;;15.20;49.60;;;;;;4916421;29;20453;-84
2021/04/20 08:47:41;;;;;;;52.83;20.23;;;15.50;42.60;;;;;;4916353;29;20967;-84
2021/04/20 08:50:20;;;;;;;52.73;19.80;;;15.90;39.50;;;;;;4919486;29;20469;-84
2021/04/20 08:52:59;;;;;;;53.37;19.93;;;16.00;30.80;;;;;;4916564;29;21008;-83
2021/04/20 08:55:48;;;;;;;49.90;18.10;;;16.10;31.60;;;;;;4914672;29;20829;-85
2021/04/20 08:58:36;;;;;;;54.03;18.17;;;16.10;27.90;;;;;;4915885;28;20461;-85
2021/04/20 09:01:14;;;;;;;47.27;16.90;;;16.50;31.80;;;;;;4919487;29;20478;-85
2021/04/20 09:03:52;;;;;;;46.90;17.13;;;16.90;26.90;;;;;;4915902;29;20465;-85
2021/04/20 09:06:28;;;;;;;53.33;18.20;;;17.30;25.80;;;;;;4915871;29;20469;-84
2021/04/20 09:09:18;;;;;;;53.43;18.37;;;17.40;21.00;;;;;;4914896;29;20485;-84
2021/04/20 09:11:57;;;;;;;50.87;18.37;;;17.70;21.80;;;;;;4916752;29;21027;-85
2021/04/20 09:14:30;;;;;;;51.60;18.67;;;17.80;15.90;;;;;;4915635;29;20465;-84
2021/04/20 09:19:57;;;;;;;49.00;16.47;;;18.30;17.10;;;;;;4914703;28;20474;-85
2021/04/20 09:22:49;;;;;;;58.77;18.27;;;18.60;16.40;;;;;;4915247;29;20467;-84
2021/04/20 09:25:23;;;;;;;57.13;15.63;;;18.50;5.70;;;;;;4914230;29;20549;-81
2021/04/20 09:27:58;;;;;;;51.90;15.00;;;18.70;6.40;;;;;;4915471;29;20493;-80
2021/04/20 09:30:28;;;;;;;52.73;14.50;;;19.10;5.70;;;;;;4915605;29;20457;-79
2021/04/20 09:32:59;;;;;;;48.07;13.30;;;19.00;6.10;;;;;;4915370;29;20527;-80
2021/04/20 09:35:28;;;;;;;50.53;14.10;;;18.70;3.60;;;;;;4915545;29;20544;-80
2021/04/20 09:37:57;;;;;;;47.60;12.03;;;19.30;2.60;;;;;;4915189;29;20561;-80
2021/04/20 09:40:26;;;;;;;50.37;13.03;;;19.60;1.00;;;;;;4914058;29;20464;-80
2021/04/20 09:42:56;;;;;;;51.50;13.40;;;19.40;1.00;;;;;;4914365;29;20462;-79
2021/04/20 09:45:31;;;;;;;50.13;13.90;;;19.30;1.00;;;;;;4915103;29;20465;-79
2021/04/20 09:48:08;;;;;;;48.77;12.60;;;19.20;1.00;;;;;;4915239;29;20456;-79
2021/04/20 09:50:43;;;;;;;48.30;12.03;;;18.80;1.00;;;;;;4915167;29;20946;-79
2021/04/20 09:53:37;;;;;;;49.87;13.70;;;19.50;1.00;;;;;;4914835;29;20468;-80
2021/04/20 09:56:17;;;;;;;46.57;12.07;;;20.00;1.00;;;;;;4914886;29;20457;-80
2021/04/20 09:58:46;;;;;;;49.80;13.20;;;20.70;1.00;;;;;;4914808;29;20464;-80
2021/04/20 10:01:32;;;;;;;49.93;11.83;;;21.40;1.00;;;;;;4914891;29;20592;-77
2021/04/20 10:04:05;;;;;;;48.03;11.13;;;21.20;1.00;;;;;;4914588;29;20999;-77
2021/04/20 10:06:50;;;;;;;50.40;12.83;;;21.60;1.00;;;;;;4914876;29;20466;-77
2021/04/20 10:09:27;;;;;;;53.87;12.27;;;21.90;1.00;;;;;;4913668;29;20532;-77
2021/04/20 10:12:12;;;;;;;48.63;11.37;;;22.30;1.00;;;;;;4914735;29;20462;-77
2021/04/20 10:14:48;;;;;;;49.43;11.23;;;22.70;1.00;;;;;;4914656;29;20462;-77
2021/04/20 10:17:16;;;;;;;50.27;10.83;;;22.40;1.00;;;;;;4914928;29;20465;-77
2021/04/20 10:19:52;;;;;;;50.13;9.90;;;22.30;1.00;;;;;;4914616;29;20520;-77
2021/04/20 10:22:32;;;;;;;53.77;11.97;;;22.90;1.00;;;;;;4914760;28;20489;-77
2021/04/20 10:25:12;;;;;;;54.87;12.30;;;23.30;1.00;;;;;;4913723;29;20485;-78
2021/04/20 10:27:44;;;;;;;55.20;11.23;;;23.60;1.00;;;;;;4914603;29;20465;-77
2021/04/20 10:30:17;;;;;;;56.47;13.27;;;22.70;1.00;;;;;;4914096;29;20504;-78
2021/04/20 10:32:50;;;;;;;53.27;12.17;;;21.50;1.00;;;;;;4914554;29;20458;-77
2021/04/20 10:35:19;;;;;;;57.03;13.00;;;21.80;1.00;;;;;;4914529;29;20512;-77
2021/04/20 10:37:49;;;;;;;53.93;12.73;;;22.50;1.00;;;;;;4914661;29;20878;-77
2021/04/20 10:40:19;;;;;;;52.13;11.00;;;21.80;1.00;;;;;;4913354;29;20536;-77
2021/04/20 10:45:29;;;;;;;50.00;8.50;;;21.60;1.00;;;;;;4913490;28;20961;-77
2021/04/20 10:47:57;;;;;;;46.40;7.93;;;20.50;1.00;;;;;;4914414;29;20481;-78
2021/04/20 10:54:10;;;;;;;53.30;9.60;;;20.10;1.00;;;;;;4908441;29;20479;-80
2021/04/20 10:56:37;;;;;;;45.10;7.60;;;20.40;1.00;;;;;;4914316;28;20220;-80
2021/04/20 10:59:08;;;;;;;47.70;7.70;;;20.70;1.00;;;;;;4914010;29;20886;-81
2021/04/20 11:01:36;;;;;;;50.17;8.70;;;20.80;1.00;;;;;;4914070;28;20850;-80
2021/04/20 11:04:07;;;;;;;48.90;8.60;;;21.10;1.00;;;;;;4914236;29;20900;-79
2021/04/20 11:06:54;;;;;;;47.33;7.87;;;21.80;1.00;;;;;;4914158;29;20461;-79
2021/04/20 11:09:28;;;;;;;44.90;7.27;;;21.60;1.00;;;;;;4912874;29;20879;-80
2021/04/20 11:11:54;;;;;;;46.97;8.60;;;21.60;1.00;;;;;;4913860;29;20511;-80
2021/04/20 11:14:37;;;;;;;56.60;10.65;;;21.80;1.00;;;;;;4913756;28;20462;-80
2021/04/20 11:17:23;;;;;;;53.50;9.23;;;22.60;1.00;;;;;;4913935;29;20201;-79
2021/04/20 11:19:58;;;;;;;51.57;9.70;;;24.30;1.00;;;;;;4913236;28;20461;-76
2021/04/20 11:22:27;;;;;;;51.80;9.80;;;24.20;1.00;;;;;;4914133;29;20457;-76
2021/04/20 11:24:59;;;;;;;49.00;8.47;;;23.60;1.00;;;;;;4912766;29;20454;-76
2021/04/20 11:27:30;;;;;;;53.63;9.63;;;23.40;1.00;;;;;;4914003;29;20457;-76
2021/04/20 11:30:07;;;;;;;52.93;9.67;;;23.60;1.00;;;;;;4913816;28;20494;-76
2021/04/20 11:32:35;;;;;;;52.70;9.27;;;23.40;1.00;;;;;;4913398;29;20464;-76
2021/04/20 11:35:08;;;;;;;50.63;9.40;;;24.50;1.00;;;;;;4913659;29;20945;-76
2021/04/20 11:37:36;;;;;;;55.43;12.10;;;25.70;1.00;;;;;;4913725;29;20961;-76
2021/04/20 11:40:07;;;;;;;53.70;9.43;;;25.00;1.00;;;;;;4912658;29;20489;-76
2021/04/20 11:42:38;;;;;;;53.33;9.50;;;24.40;1.00;;;;;;4913611;29;20527;-76
2021/04/20 11:45:13;;;;;;;53.97;9.03;;;24.30;1.00;;;;;;4913480;29;20433;-76
2021/04/20 11:47:52;;;;;;;53.23;8.87;;;23.40;1.00;;;;;;4913860;29;20549;-76
2021/04/20 11:50:20;;;;;;;54.10;9.83;;;24.00;1.00;;;;;;4913138;28;20854;-76
2021/04/20 11:52:48;;;;;;;53.07;9.03;;;24.40;1.00;;;;;;4913580;29;20484;-76
2021/04/20 11:55:18;;;;;;;55.83;9.23;;;25.00;1.00;;;;;;4912592;29;20967;-76
2021/04/20 11:57:46;;;;;;;56.60;10.37;;;23.80;1.00;;;;;;4913630;29;20458;-76
2021/04/20 12:00:15;;;;;;;52.60;8.63;;;23.40;1.00;;;;;;4913361;29;20556;-76
2021/04/20 12:02:43;;;;;;;52.30;9.00;;;23.60;1.00;;;;;;4913391;29;20457;-76
2021/04/20 12:05:12;;;;;;;56.60;10.30;;;24.10;1.00;;;;;;4913545;29;20458;-76
2021/04/20 12:07:40;;;;;;;52.57;9.33;;;24.30;1.00;;;;;;4916800;29;20544;-76
2021/04/20 12:10:14;;;;;;;52.60;9.83;;;24.00;1.00;;;;;;4915160;29;21004;-76
2021/04/20 12:12:41;;;;;;;50.53;9.67;;;23.50;1.00;;;;;;4916665;28;20457;-76
2021/04/20 12:15:15;;;;;;;52.37;9.53;;;23.10;1.00;;;;;;4916691;28;20468;-83
2021/04/20 12:17:48;;;;;;;51.07;9.30;;;23.30;1.00;;;;;;4916781;29;20461;-85
2021/04/20 12:20:21;;;;;;;50.80;8.90;;;23.50;1.00;;;;;;4916555;29;20465;-80
2021/04/20 12:22:53;;;;;;;48.40;9.00;;;24.80;1.00;;;;;;4898794;29;20446;-83
2021/04/20 12:25:23;;;;;;;49.17;8.23;;;25.70;1.00;;;;;;4915242;29;20469;-82
2021/04/20 12:27:54;;;;;;;51.30;9.97;;;25.00;1.00;;;;;;4916396;28;20461;-82
2021/04/20 12:30:22;;;;;;;51.97;9.07;;;25.10;1.00;;;;;;4916249;29;20489;-82
2021/04/20 12:32:52;;;;;;;55.77;9.50;;;25.00;1.00;;;;;;4916440;28;20552;-83
2021/04/20 12:35:31;;;;;;;56.47;10.13;;;24.60;1.00;;;;;;4916419;29;20476;-83
2021/04/20 12:38:09;;;;;;;51.20;9.33;;;25.50;1.00;;;;;;4916513;29;20493;-82
2021/04/20 12:40:38;;;;;;;54.37;10.30;;;26.40;1.00;;;;;;4915332;29;20469;-83
2021/04/20 12:43:06;;;;;;;52.90;9.60;;;25.60;1.00;;;;;;4916443;29;20476;-82
2021/04/20 12:45:38;;;;;;;54.33;10.30;;;25.60;1.00;;;;;;4916220;29;20894;-82
2021/04/20 12:48:17;;;;;;;54.07;9.67;;;27.00;1.00;;;;;;4916164;29;20516;-82
2021/04/20 12:50:47;;;;;;;55.50;9.93;;;27.10;1.00;;;;;;4916250;29;20461;-83
2021/04/20 12:53:15;;;;;;;53.93;8.80;;;27.60;1.00;;;;;;4916135;29;20479;-82
2021/04/20 12:55:43;;;;;;;57.83;9.33;;;27.60;1.00;;;;;;4915223;29;20727;-83
2021/04/20 12:58:17;;;;;;;56.03;9.47;;;27.30;1.00;;;;;;4915858;29;20457;-82
2021/04/20 13:00:46;;;;;;;56.60;9.67;;;26.70;1.00;;;;;;4915989;29;20516;-82
2021/04/20 13:03:25;;;;;;;54.03;8.50;;;26.50;1.00;;;;;;4916000;29;21037;-82
2021/04/20 13:05:53;;;;;;;52.70;7.60;;;26.40;1.00;;;;;;4916063;29;20493;-82
2021/04/20 13:08:21;;;;;;;54.30;6.40;;;26.10;1.00;;;;;;4915341;28;20466;-82